Main page
METAR-TAF:

METAR-TAF

Airports :

Málaga Airport

Málaga, Spain

latitude: 36-40N, longitude: 004-29W, elevation: 16 m

Current weather observation

The report was made 35 minutes ago, at 01:00 UTC
Wind 7 kt from the West
Temperature 23°C
Humidity 53%
Pressure 1017 hPa
Visibility 10 km or more
no clouds below 1500 m and no cumulonimbus

METAR: LEMG 220100Z 28007KT CAVOK 23/13 Q1017 NOSIG

Time: 03:35 (01:35 UTC)

Forecast

The report was made 2 hours and 35 minutes ago, at 23:00 UTC
Forecast valid from 22 at 00 UTC to 22 at 24 UTC
Wind 6 kt from the West/Northwest
Visibility 10 km or more
no clouds below 1500 m and no cumulonimbus
Becoming
from 22 at 09 UTC to 22 at 11 UTC
Wind 9 kt from the Southeast
Becoming
from 22 at 20 UTC to 22 at 22 UTC
Wind 3 kt from variable directions

TAF: LEMG 212300Z 2200/2224 29006KT CAVOK TX29/2213Z TN21/2205Z BECMG 2209/2211 14009KT BECMG 2220/2222 VRB03KT

Weather observations and forecasts of more than 4000 airports (METAR and TAF reports).

The available stations are represented by yellow and red dots on the map.

Hover mouse over dot to see the name of the station.

Then click to see weather observations and forecasts.

To change the map : click on the green buttons with a black cross to zoom in, on the green button with a dash to zoom out, or on the green arrows for adjacent maps.


METAR-TAF: